createdAt,value
2022-08-05T00:00:00.000Z,64.14
2022-08-05T00:15:00.000Z,65.17
2022-08-05T00:30:00.000Z,65.46
2022-08-05T00:45:00.000Z,66.25
2022-08-05T01:00:00.000Z,66.28
2022-08-05T01:15:00.000Z,64.87
2022-08-05T01:30:00.000Z,64.12
2022-08-05T01:45:00.000Z,64.28
2022-08-05T02:00:00.000Z,64.63
2022-08-05T02:15:00.000Z,64.66
2022-08-05T02:30:00.000Z,64.4
2022-08-05T02:45:00.000Z,64.24
2022-08-05T03:00:00.000Z,64.42
2022-08-05T03:15:00.000Z,64.68
2022-08-05T03:30:00.000Z,64.64
2022-08-05T03:45:00.000Z,64.35
2022-08-05T04:00:00.000Z,64.31
2022-08-05T04:15:00.000Z,63.78
2022-08-05T04:30:00.000Z,62.44
2022-08-05T04:45:00.000Z,60.55
2022-08-05T05:00:00.000Z,59.26
2022-08-05T05:15:00.000Z,59.06
2022-08-05T05:30:00.000Z,59.01
2022-08-05T05:45:00.000Z,58.02
2022-08-05T06:00:00.000Z,56.62
2022-08-05T06:15:00.000Z,55.62
2022-08-05T06:30:00.000Z,53.8
2022-08-05T06:45:00.000Z,50.31
2022-08-05T07:00:00.000Z,44.8
2022-08-05T07:15:00.000Z,40.13
2022-08-05T07:30:00.000Z,38.6
2022-08-05T07:45:00.000Z,36.31
2022-08-05T08:00:00.000Z,35.4
2022-08-05T08:15:00.000Z,34.37
2022-08-05T08:30:00.000Z,33.63
2022-08-05T08:45:00.000Z,33.8
2022-08-05T09:00:00.000Z,32.81
2022-08-05T09:15:00.000Z,28.88
2022-08-05T09:30:00.000Z,27.63
2022-08-05T09:45:00.000Z,27.92
2022-08-05T10:00:00.000Z,29.18
2022-08-05T10:15:00.000Z,30.55
2022-08-05T10:30:00.000Z,30.61
2022-08-05T10:45:00.000Z,31.09
2022-08-05T11:00:00.000Z,31.99
2022-08-05T11:15:00.000Z,32.05
2022-08-05T11:30:00.000Z,32.93
2022-08-05T11:45:00.000Z,34.61
2022-08-05T12:00:00.000Z,35.73
2022-08-05T12:15:00.000Z,37.2
2022-08-05T12:30:00.000Z,36.31
2022-08-05T12:45:00.000Z,36.91
2022-08-05T13:00:00.000Z,37.6
2022-08-05T13:15:00.000Z,37.77
2022-08-05T13:30:00.000Z,37.73
2022-08-05T13:45:00.000Z,37.14
2022-08-05T14:00:00.000Z,37.13
2022-08-05T14:15:00.000Z,36.92
2022-08-05T14:30:00.000Z,37.3
2022-08-05T14:45:00.000Z,38.43
2022-08-05T15:00:00.000Z,40.23
2022-08-05T15:15:00.000Z,41.25
2022-08-05T15:30:00.000Z,41.76
2022-08-05T15:45:00.000Z,42.85
2022-08-05T16:00:00.000Z,44.96
2022-08-05T16:15:00.000Z,50.55
2022-08-05T16:30:00.000Z,55.24
2022-08-05T16:45:00.000Z,58.52
2022-08-05T17:00:00.000Z,63
2022-08-05T17:15:00.000Z,65.69
2022-08-05T17:30:00.000Z,67.44
2022-08-05T17:45:00.000Z,67.71
2022-08-05T18:00:00.000Z,68.51
2022-08-05T18:15:00.000Z,68.79
2022-08-05T18:30:00.000Z,69.85
2022-08-05T18:45:00.000Z,69.86
2022-08-05T19:00:00.000Z,70.29
2022-08-05T19:15:00.000Z,70.47
2022-08-05T19:30:00.000Z,68.71
2022-08-05T19:45:00.000Z,69.32
2022-08-05T20:00:00.000Z,70.11
2022-08-05T20:15:00.000Z,68.32
2022-08-05T20:30:00.000Z,68.65
2022-08-05T20:45:00.000Z,68.22
2022-08-05T21:00:00.000Z,69.59
2022-08-05T21:15:00.000Z,69.41
2022-08-05T21:30:00.000Z,68.64
2022-08-05T21:45:00.000Z,68.94
2022-08-05T22:00:00.000Z,69.08
2022-08-05T22:15:00.000Z,67.68
2022-08-05T22:30:00.000Z,65.27
2022-08-05T22:45:00.000Z,66.19
2022-08-05T23:00:00.000Z,67.28
2022-08-05T23:15:00.000Z,67.02
2022-08-05T23:30:00.000Z,70.41
2022-08-05T23:45:00.000Z,72.04
